sensor_id;sensor_type;location;lat;lon;timestamp;P1;durP1;ratioP1;P2;durP2;ratioP2
34695;SDS011;20918;51.138;17.370;2023-09-12T00:02:05;19.50;;;14.60;;
34695;SDS011;20918;51.138;17.370;2023-09-12T00:05:06;26.60;;;17.50;;
34695;SDS011;20918;51.138;17.370;2023-09-12T00:08:07;25.20;;;16.60;;
34695;SDS011;20918;51.138;17.370;2023-09-12T00:11:08;20.50;;;13.60;;
34695;SDS011;20918;51.138;17.370;2023-09-12T00:14:17;21.90;;;15.30;;
34695;SDS011;20918;51.138;17.370;2023-09-12T00:17:18;22.10;;;15.80;;
34695;SDS011;20918;51.138;17.370;2023-09-12T00:20:18;23.10;;;17.60;;
34695;SDS011;20918;51.138;17.370;2023-09-12T00:26:20;19.10;;;14.40;;
34695;SDS011;20918;51.138;17.370;2023-09-12T00:29:21;19.90;;;14.90;;
34695;SDS011;20918;51.138;17.370;2023-09-12T00:32:22;24.10;;;15.70;;
34695;SDS011;20918;51.138;17.370;2023-09-12T00:35:22;18.00;;;14.50;;
34695;SDS011;20918;51.138;17.370;2023-09-12T00:38:23;22.60;;;16.50;;
34695;SDS011;20918;51.138;17.370;2023-09-12T00:41:23;21.30;;;16.00;;
34695;SDS011;20918;51.138;17.370;2023-09-12T00:47:25;21.40;;;15.90;;
34695;SDS011;20918;51.138;17.370;2023-09-12T00:50:27;22.40;;;17.30;;
34695;SDS011;20918;51.138;17.370;2023-09-12T00:53:28;19.30;;;16.60;;
34695;SDS011;20918;51.138;17.370;2023-09-12T00:56:29;23.60;;;15.80;;
34695;SDS011;20918;51.138;17.370;2023-09-12T01:02:30;22.70;;;14.20;;
34695;SDS011;20918;51.138;17.370;2023-09-12T01:08:31;21.60;;;15.00;;
34695;SDS011;20918;51.138;17.370;2023-09-12T01:11:31;18.70;;;15.50;;
34695;SDS011;20918;51.138;17.370;2023-09-12T01:14:32;20.10;;;15.30;;
34695;SDS011;20918;51.138;17.370;2023-09-12T01:17:33;20.30;;;15.30;;
34695;SDS011;20918;51.138;17.370;2023-09-12T01:20:34;21.80;;;14.50;;
34695;SDS011;20918;51.138;17.370;2023-09-12T01:26:56;21.70;;;14.60;;
34695;SDS011;20918;51.138;17.370;2023-09-12T01:30:22;22.70;;;15.30;;
34695;SDS011;20918;51.138;17.370;2023-09-12T01:33:25;21.40;;;14.60;;
34695;SDS011;20918;51.138;17.370;2023-09-12T01:36:26;20.90;;;13.80;;
34695;SDS011;20918;51.138;17.370;2023-09-12T01:42:28;19.50;;;15.70;;
34695;SDS011;20918;51.138;17.370;2023-09-12T01:45:35;17.50;;;14.40;;
34695;SDS011;20918;51.138;17.370;2023-09-12T01:48:36;22.40;;;15.00;;
34695;SDS011;20918;51.138;17.370;2023-09-12T01:51:38;19.90;;;14.90;;
34695;SDS011;20918;51.138;17.370;2023-09-12T01:54:40;21.90;;;15.00;;
34695;SDS011;20918;51.138;17.370;2023-09-12T01:57:42;24.30;;;18.30;;
34695;SDS011;20918;51.138;17.370;2023-09-12T02:00:43;23.10;;;17.00;;
34695;SDS011;20918;51.138;17.370;2023-09-12T02:03:43;19.60;;;15.20;;
34695;SDS011;20918;51.138;17.370;2023-09-12T02:06:44;21.40;;;15.90;;
34695;SDS011;20918;51.138;17.370;2023-09-12T02:09:44;22.60;;;16.90;;
34695;SDS011;20918;51.138;17.370;2023-09-12T02:12:45;22.70;;;16.00;;
34695;SDS011;20918;51.138;17.370;2023-09-12T02:15:45;21.70;;;15.00;;
34695;SDS011;20918;51.138;17.370;2023-09-12T02:21:46;16.10;;;13.80;;
34695;SDS011;20918;51.138;17.370;2023-09-12T02:24:47;15.80;;;14.10;;
34695;SDS011;20918;51.138;17.370;2023-09-12T02:27:47;19.90;;;15.10;;
34695;SDS011;20918;51.138;17.370;2023-09-12T02:33:49;18.40;;;14.50;;
34695;SDS011;20918;51.138;17.370;2023-09-12T02:36:49;22.90;;;15.90;;
34695;SDS011;20918;51.138;17.370;2023-09-12T02:39:50;15.90;;;13.80;;
34695;SDS011;20918;51.138;17.370;2023-09-12T02:42:51;22.40;;;16.40;;
34695;SDS011;20918;51.138;17.370;2023-09-12T02:45:52;21.40;;;15.70;;
34695;SDS011;20918;51.138;17.370;2023-09-12T02:51:53;19.30;;;14.00;;
34695;SDS011;20918;51.138;17.370;2023-09-12T02:54:54;18.80;;;15.70;;
34695;SDS011;20918;51.138;17.370;2023-09-12T02:57:54;21.10;;;15.10;;
34695;SDS011;20918;51.138;17.370;2023-09-12T03:00:55;20.20;;;15.90;;
34695;SDS011;20918;51.138;17.370;2023-09-12T03:06:57;19.00;;;14.00;;
34695;SDS011;20918;51.138;17.370;2023-09-12T03:12:58;21.80;;;15.30;;
34695;SDS011;20918;51.138;17.370;2023-09-12T03:15:59;19.20;;;16.20;;
34695;SDS011;20918;51.138;17.370;2023-09-12T03:19:00;18.60;;;15.60;;
34695;SDS011;20918;51.138;17.370;2023-09-12T03:22:03;24.00;;;17.10;;
34695;SDS011;20918;51.138;17.370;2023-09-12T03:25:04;21.50;;;14.40;;
34695;SDS011;20918;51.138;17.370;2023-09-12T03:28:06;22.40;;;16.50;;
34695;SDS011;20918;51.138;17.370;2023-09-12T03:31:10;20.20;;;14.50;;
34695;SDS011;20918;51.138;17.370;2023-09-12T03:34:13;17.50;;;14.70;;
34695;SDS011;20918;51.138;17.370;2023-09-12T03:37:16;16.30;;;13.40;;
34695;SDS011;20918;51.138;17.370;2023-09-12T03:40:17;21.30;;;14.40;;
34695;SDS011;20918;51.138;17.370;2023-09-12T03:43:18;18.40;;;14.30;;
34695;SDS011;20918;51.138;17.370;2023-09-12T03:46:18;22.60;;;17.00;;
34695;SDS011;20918;51.138;17.370;2023-09-12T03:49:19;19.80;;;15.10;;
34695;SDS011;20918;51.138;17.370;2023-09-12T03:55:20;22.40;;;17.40;;
34695;SDS011;20918;51.138;17.370;2023-09-12T03:58:21;22.00;;;16.10;;
34695;SDS011;20918;51.138;17.370;2023-09-12T04:01:22;21.50;;;16.10;;
34695;SDS011;20918;51.138;17.370;2023-09-12T04:04:22;20.50;;;14.50;;
34695;SDS011;20918;51.138;17.370;2023-09-12T04:07:23;19.10;;;14.40;;
34695;SDS011;20918;51.138;17.370;2023-09-12T04:13:24;27.30;;;15.60;;
34695;SDS011;20918;51.138;17.370;2023-09-12T04:16:24;17.20;;;14.00;;
34695;SDS011;20918;51.138;17.370;2023-09-12T04:19:25;20.60;;;15.70;;
34695;SDS011;20918;51.138;17.370;2023-09-12T04:22:25;21.00;;;14.80;;
34695;SDS011;20918;51.138;17.370;2023-09-12T04:25:26;22.50;;;15.10;;
34695;SDS011;20918;51.138;17.370;2023-09-12T04:28:27;17.70;;;13.90;;
34695;SDS011;20918;51.138;17.370;2023-09-12T04:31:27;17.90;;;14.40;;
34695;SDS011;20918;51.138;17.370;2023-09-12T04:34:28;18.70;;;14.50;;
34695;SDS011;20918;51.138;17.370;2023-09-12T04:37:29;22.10;;;14.20;;
34695;SDS011;20918;51.138;17.370;2023-09-12T04:40:30;17.60;;;14.80;;
34695;SDS011;20918;51.138;17.370;2023-09-12T04:43:32;21.70;;;14.30;;
34695;SDS011;20918;51.138;17.370;2023-09-12T04:46:33;17.90;;;15.10;;
34695;SDS011;20918;51.138;17.370;2023-09-12T04:49:36;18.80;;;15.10;;
34695;SDS011;20918;51.138;17.370;2023-09-12T04:52:37;19.20;;;14.60;;
34695;SDS011;20918;51.138;17.370;2023-09-12T04:55:38;17.60;;;13.90;;
34695;SDS011;20918;51.138;17.370;2023-09-12T05:01:39;21.50;;;15.20;;
34695;SDS011;20918;51.138;17.370;2023-09-12T05:07:43;54.40;;;14.00;;
34695;SDS011;20918;51.138;17.370;2023-09-12T05:13:45;19.30;;;14.10;;
34695;SDS011;20918;51.138;17.370;2023-09-12T05:16:45;17.30;;;13.50;;
34695;SDS011;20918;51.138;17.370;2023-09-12T05:19:46;18.80;;;14.50;;
34695;SDS011;20918;51.138;17.370;2023-09-12T05:22:47;23.30;;;14.00;;
34695;SDS011;20918;51.138;17.370;2023-09-12T05:28:48;20.60;;;12.60;;
34695;SDS011;20918;51.138;17.370;2023-09-12T05:31:49;17.10;;;14.50;;
34695;SDS011;20918;51.138;17.370;2023-09-12T05:37:51;26.40;;;14.20;;
34695;SDS011;20918;51.138;17.370;2023-09-12T05:40:52;17.40;;;14.20;;
34695;SDS011;20918;51.138;17.370;2023-09-12T05:43:53;23.00;;;14.50;;
34695;SDS011;20918;51.138;17.370;2023-09-12T05:49:54;20.20;;;15.00;;
34695;SDS011;20918;51.138;17.370;2023-09-12T05:52:56;20.60;;;14.70;;
34695;SDS011;20918;51.138;17.370;2023-09-12T05:58:57;17.90;;;14.20;;
34695;SDS011;20918;51.138;17.370;2023-09-12T06:07:58;15.10;;;13.50;;
34695;SDS011;20918;51.138;17.370;2023-09-12T06:10:59;19.00;;;14.90;;
34695;SDS011;20918;51.138;17.370;2023-09-12T06:14:00;19.80;;;14.80;;
34695;SDS011;20918;51.138;17.370;2023-09-12T06:17:01;17.60;;;14.20;;
34695;SDS011;20918;51.138;17.370;2023-09-12T06:20:01;17.20;;;14.90;;
34695;SDS011;20918;51.138;17.370;2023-09-12T06:23:03;20.60;;;14.20;;
34695;SDS011;20918;51.138;17.370;2023-09-12T06:26:05;17.00;;;14.90;;
34695;SDS011;20918;51.138;17.370;2023-09-12T06:29:06;22.50;;;15.00;;
34695;SDS011;20918;51.138;17.370;2023-09-12T06:32:09;21.10;;;15.30;;
34695;SDS011;20918;51.138;17.370;2023-09-12T06:35:10;15.90;;;13.80;;
34695;SDS011;20918;51.138;17.370;2023-09-12T06:38:11;15.60;;;13.90;;
34695;SDS011;20918;51.138;17.370;2023-09-12T06:41:11;19.80;;;14.20;;
34695;SDS011;20918;51.138;17.370;2023-09-12T06:44:12;16.80;;;13.30;;
34695;SDS011;20918;51.138;17.370;2023-09-12T06:47:12;15.10;;;12.90;;
34695;SDS011;20918;51.138;17.370;2023-09-12T06:50:13;15.90;;;13.40;;
34695;SDS011;20918;51.138;17.370;2023-09-12T06:53:14;15.50;;;13.40;;
34695;SDS011;20918;51.138;17.370;2023-09-12T06:56:14;15.30;;;13.10;;
34695;SDS011;20918;51.138;17.370;2023-09-12T06:59:15;16.40;;;13.00;;
34695;SDS011;20918;51.138;17.370;2023-09-12T07:02:15;14.40;;;12.90;;
34695;SDS011;20918;51.138;17.370;2023-09-12T07:05:18;15.20;;;12.40;;
34695;SDS011;20918;51.138;17.370;2023-09-12T07:08:18;14.90;;;12.70;;
34695;SDS011;20918;51.138;17.370;2023-09-12T07:11:19;18.30;;;13.00;;
34695;SDS011;20918;51.138;17.370;2023-09-12T07:14:20;14.40;;;12.80;;
34695;SDS011;20918;51.138;17.370;2023-09-12T07:17:22;21.40;;;12.70;;
34695;SDS011;20918;51.138;17.370;2023-09-12T07:20:22;15.70;;;12.30;;
34695;SDS011;20918;51.138;17.370;2023-09-12T07:23:23;16.90;;;12.60;;
34695;SDS011;20918;51.138;17.370;2023-09-12T07:26:24;15.40;;;11.80;;
34695;SDS011;20918;51.138;17.370;2023-09-12T07:29:25;12.50;;;11.10;;
34695;SDS011;20918;51.138;17.370;2023-09-12T07:32:26;17.90;;;11.70;;
34695;SDS011;20918;51.138;17.370;2023-09-12T07:35:27;16.50;;;11.20;;
34695;SDS011;20918;51.138;17.370;2023-09-12T07:38:28;14.50;;;10.80;;
34695;SDS011;20918;51.138;17.370;2023-09-12T07:41:31;12.70;;;11.30;;
34695;SDS011;20918;51.138;17.370;2023-09-12T07:44:31;15.30;;;11.30;;
34695;SDS011;20918;51.138;17.370;2023-09-12T07:47:32;14.00;;;12.10;;
34695;SDS011;20918;51.138;17.370;2023-09-12T07:50:34;12.30;;;10.70;;
34695;SDS011;20918;51.138;17.370;2023-09-12T07:53:34;13.90;;;10.90;;
34695;SDS011;20918;51.138;17.370;2023-09-12T07:56:35;15.10;;;10.80;;
34695;SDS011;20918;51.138;17.370;2023-09-12T07:59:36;13.50;;;10.70;;
34695;SDS011;20918;51.138;17.370;2023-09-12T08:02:36;13.10;;;10.50;;
34695;SDS011;20918;51.138;17.370;2023-09-12T08:05:37;14.00;;;10.40;;
34695;SDS011;20918;51.138;17.370;2023-09-12T08:08:38;11.70;;;10.50;;
34695;SDS011;20918;51.138;17.370;2023-09-12T08:11:39;14.20;;;10.90;;
34695;SDS011;20918;51.138;17.370;2023-09-12T08:14:39;12.00;;;10.50;;
34695;SDS011;20918;51.138;17.370;2023-09-12T08:17:40;11.90;;;8.70;;
34695;SDS011;20918;51.138;17.370;2023-09-12T08:20:41;12.60;;;10.00;;
34695;SDS011;20918;51.138;17.370;2023-09-12T08:23:43;11.80;;;10.50;;
34695;SDS011;20918;51.138;17.370;2023-09-12T08:26:44;11.50;;;10.30;;
34695;SDS011;20918;51.138;17.370;2023-09-12T08:29:44;12.20;;;10.20;;
34695;SDS011;20918;51.138;17.370;2023-09-12T08:32:47;10.60;;;9.50;;
34695;SDS011;20918;51.138;17.370;2023-09-12T08:35:49;11.50;;;10.30;;
34695;SDS011;20918;51.138;17.370;2023-09-12T08:38:50;12.30;;;9.20;;
34695;SDS011;20918;51.138;17.370;2023-09-12T08:41:51;16.50;;;10.00;;
34695;SDS011;20918;51.138;17.370;2023-09-12T08:44:53;10.20;;;9.10;;
34695;SDS011;20918;51.138;17.370;2023-09-12T08:47:54;9.70;;;8.70;;
34695;SDS011;20918;51.138;17.370;2023-09-12T08:50:56;10.50;;;9.40;;
34695;SDS011;20918;51.138;17.370;2023-09-12T08:54:01;10.40;;;9.30;;
34695;SDS011;20918;51.138;17.370;2023-09-12T08:57:05;11.80;;;9.70;;
34695;SDS011;20918;51.138;17.370;2023-09-12T09:00:11;10.60;;;9.40;;
34695;SDS011;20918;51.138;17.370;2023-09-12T09:03:15;14.50;;;9.60;;
34695;SDS011;20918;51.138;17.370;2023-09-12T09:06:16;10.60;;;9.60;;
34695;SDS011;20918;51.138;17.370;2023-09-12T09:09:19;12.00;;;10.00;;
34695;SDS011;20918;51.138;17.370;2023-09-12T09:12:22;10.50;;;9.40;;
34695;SDS011;20918;51.138;17.370;2023-09-12T09:15:26;15.40;;;9.90;;
34695;SDS011;20918;51.138;17.370;2023-09-12T09:18:28;11.60;;;9.00;;
34695;SDS011;20918;51.138;17.370;2023-09-12T09:21:30;12.20;;;9.10;;
34695;SDS011;20918;51.138;17.370;2023-09-12T09:24:32;10.60;;;8.50;;
34695;SDS011;20918;51.138;17.370;2023-09-12T09:27:32;10.90;;;8.70;;
34695;SDS011;20918;51.138;17.370;2023-09-12T09:30:52;10.90;;;8.50;;
34695;SDS011;20918;51.138;17.370;2023-09-12T09:33:55;11.30;;;9.10;;
34695;SDS011;20918;51.138;17.370;2023-09-12T09:36:56;12.20;;;8.40;;
34695;SDS011;20918;51.138;17.370;2023-09-12T09:40:05;10.70;;;8.60;;
34695;SDS011;20918;51.138;17.370;2023-09-12T09:43:07;10.40;;;8.90;;
34695;SDS011;20918;51.138;17.370;2023-09-12T09:46:08;9.20;;;8.20;;
34695;SDS011;20918;51.138;17.370;2023-09-12T09:49:16;9.20;;;7.50;;
34695;SDS011;20918;51.138;17.370;2023-09-12T09:52:24;10.30;;;8.50;;
34695;SDS011;20918;51.138;17.370;2023-09-12T09:55:29;10.00;;;8.80;;
34695;SDS011;20918;51.138;17.370;2023-09-12T09:58:30;9.20;;;8.20;;
34695;SDS011;20918;51.138;17.370;2023-09-12T10:01:36;9.30;;;8.30;;
34695;SDS011;20918;51.138;17.370;2023-09-12T10:04:37;17.30;;;8.50;;
34695;SDS011;20918;51.138;17.370;2023-09-12T10:07:38;13.40;;;8.50;;
34695;SDS011;20918;51.138;17.370;2023-09-12T10:10:42;14.90;;;8.10;;
34695;SDS011;20918;51.138;17.370;2023-09-12T10:13:53;10.70;;;7.90;;
34695;SDS011;20918;51.138;17.370;2023-09-12T10:16:57;8.60;;;7.40;;
34695;SDS011;20918;51.138;17.370;2023-09-12T10:20:05;7.90;;;7.10;;
34695;SDS011;20918;51.138;17.370;2023-09-12T10:23:14;8.70;;;7.00;;
34695;SDS011;20918;51.138;17.370;2023-09-12T10:26:18;8.60;;;7.10;;
34695;SDS011;20918;51.138;17.370;2023-09-12T10:29:20;8.90;;;7.20;;
34695;SDS011;20918;51.138;17.370;2023-09-12T10:32:22;8.20;;;6.50;;
34695;SDS011;20918;51.138;17.370;2023-09-12T10:35:24;9.50;;;6.70;;
34695;SDS011;20918;51.138;17.370;2023-09-12T10:38:26;8.90;;;6.30;;
34695;SDS011;20918;51.138;17.370;2023-09-12T10:41:29;9.00;;;6.40;;
34695;SDS011;20918;51.138;17.370;2023-09-12T10:44:30;8.70;;;7.00;;
34695;SDS011;20918;51.138;17.370;2023-09-12T10:47:32;9.60;;;5.70;;
34695;SDS011;20918;51.138;17.370;2023-09-12T10:50:33;8.10;;;6.30;;
34695;SDS011;20918;51.138;17.370;2023-09-12T10:53:35;11.10;;;6.80;;
34695;SDS011;20918;51.138;17.370;2023-09-12T10:56:36;9.10;;;7.10;;
34695;SDS011;20918;51.138;17.370;2023-09-12T10:59:37;7.40;;;6.60;;
34695;SDS011;20918;51.138;17.370;2023-09-12T11:03:35;9.80;;;6.80;;
34695;SDS011;20918;51.138;17.370;2023-09-12T11:06:29;7.80;;;7.10;;
34695;SDS011;20918;51.138;17.370;2023-09-12T11:09:31;8.80;;;6.80;;
34695;SDS011;20918;51.138;17.370;2023-09-12T11:12:34;9.80;;;6.90;;
34695;SDS011;20918;51.138;17.370;2023-09-12T11:15:35;8.90;;;6.90;;
34695;SDS011;20918;51.138;17.370;2023-09-12T11:19:12;8.80;;;7.30;;
34695;SDS011;20918;51.138;17.370;2023-09-12T11:22:27;9.90;;;7.30;;
34695;SDS011;20918;51.138;17.370;2023-09-12T11:25:29;12.10;;;7.70;;
34695;SDS011;20918;51.138;17.370;2023-09-12T11:28:31;7.90;;;7.10;;
34695;SDS011;20918;51.138;17.370;2023-09-12T11:31:32;9.70;;;8.00;;
34695;SDS011;20918;51.138;17.370;2023-09-12T11:37:48;8.40;;;7.00;;
34695;SDS011;20918;51.138;17.370;2023-09-12T11:40:50;10.30;;;7.30;;
34695;SDS011;20918;51.138;17.370;2023-09-12T11:43:51;8.60;;;7.10;;
34695;SDS011;20918;51.138;17.370;2023-09-12T11:46:52;8.10;;;7.30;;
34695;SDS011;20918;51.138;17.370;2023-09-12T11:49:53;9.60;;;7.70;;
34695;SDS011;20918;51.138;17.370;2023-09-12T11:53:00;10.40;;;6.80;;
34695;SDS011;20918;51.138;17.370;2023-09-12T11:56:03;9.90;;;7.10;;
34695;SDS011;20918;51.138;17.370;2023-09-12T11:59:07;9.10;;;7.40;;
34695;SDS011;20918;51.138;17.370;2023-09-12T12:02:11;13.30;;;8.00;;
34695;SDS011;20918;51.138;17.370;2023-09-12T12:05:12;8.70;;;7.80;;
34695;SDS011;20918;51.138;17.370;2023-09-12T12:08:17;9.50;;;7.60;;
34695;SDS011;20918;51.138;17.370;2023-09-12T12:11:20;8.40;;;7.60;;
34695;SDS011;20918;51.138;17.370;2023-09-12T12:14:21;8.80;;;7.00;;
34695;SDS011;20918;51.138;17.370;2023-09-12T12:17:22;11.10;;;7.30;;
34695;SDS011;20918;51.138;17.370;2023-09-12T12:20:23;12.60;;;7.20;;
34695;SDS011;20918;51.138;17.370;2023-09-12T12:23:29;12.40;;;7.30;;
34695;SDS011;20918;51.138;17.370;2023-09-12T12:26:33;8.40;;;6.60;;
34695;SDS011;20918;51.138;17.370;2023-09-12T12:29:39;11.10;;;7.20;;
34695;SDS011;20918;51.138;17.370;2023-09-12T12:32:43;8.90;;;7.00;;
34695;SDS011;20918;51.138;17.370;2023-09-12T12:35:46;9.20;;;7.40;;
34695;SDS011;20918;51.138;17.370;2023-09-12T12:38:48;12.30;;;7.30;;
34695;SDS011;20918;51.138;17.370;2023-09-12T12:41:52;8.80;;;7.10;;
34695;SDS011;20918;51.138;17.370;2023-09-12T12:44:54;10.20;;;7.00;;
34695;SDS011;20918;51.138;17.370;2023-09-12T12:47:57;8.40;;;7.10;;
34695;SDS011;20918;51.138;17.370;2023-09-12T12:54:22;9.90;;;7.30;;
34695;SDS011;20918;51.138;17.370;2023-09-12T12:57:23;8.50;;;7.00;;
34695;SDS011;20918;51.138;17.370;2023-09-12T13:00:24;11.10;;;7.10;;
34695;SDS011;20918;51.138;17.370;2023-09-12T13:03:24;7.60;;;6.90;;
34695;SDS011;20918;51.138;17.370;2023-09-12T13:06:28;9.30;;;7.00;;
34695;SDS011;20918;51.138;17.370;2023-09-12T13:09:35;10.60;;;7.50;;
34695;SDS011;20918;51.138;17.370;2023-09-12T13:12:38;8.50;;;6.70;;
34695;SDS011;20918;51.138;17.370;2023-09-12T13:15:38;7.70;;;6.90;;
34695;SDS011;20918;51.138;17.370;2023-09-12T13:18:41;10.70;;;6.90;;
34695;SDS011;20918;51.138;17.370;2023-09-12T13:21:42;7.50;;;6.80;;
34695;SDS011;20918;51.138;17.370;2023-09-12T13:24:43;12.70;;;6.90;;
34695;SDS011;20918;51.138;17.370;2023-09-12T13:27:43;10.70;;;7.00;;
34695;SDS011;20918;51.138;17.370;2023-09-12T13:30:44;6.80;;;6.10;;
34695;SDS011;20918;51.138;17.370;2023-09-12T13:33:45;10.20;;;6.70;;
34695;SDS011;20918;51.138;17.370;2023-09-12T13:36:45;9.50;;;7.00;;
34695;SDS011;20918;51.138;17.370;2023-09-12T13:39:49;7.00;;;6.30;;
34695;SDS011;20918;51.138;17.370;2023-09-12T13:42:50;12.20;;;6.50;;
34695;SDS011;20918;51.138;17.370;2023-09-12T13:45:50;13.20;;;6.60;;
34695;SDS011;20918;51.138;17.370;2023-09-12T13:48:51;22.30;;;7.70;;
34695;SDS011;20918;51.138;17.370;2023-09-12T13:51:51;9.70;;;6.90;;
34695;SDS011;20918;51.138;17.370;2023-09-12T13:54:52;44.90;;;8.10;;
34695;SDS011;20918;51.138;17.370;2023-09-12T13:57:57;7.50;;;6.40;;
34695;SDS011;20918;51.138;17.370;2023-09-12T14:00:59;9.50;;;7.00;;
34695;SDS011;20918;51.138;17.370;2023-09-12T14:03:59;14.10;;;6.90;;
34695;SDS011;20918;51.138;17.370;2023-09-12T14:07:00;7.50;;;6.50;;
34695;SDS011;20918;51.138;17.370;2023-09-12T14:10:01;7.30;;;6.60;;
34695;SDS011;20918;51.138;17.370;2023-09-12T14:13:03;10.80;;;6.90;;
34695;SDS011;20918;51.138;17.370;2023-09-12T14:16:03;9.70;;;6.50;;
34695;SDS011;20918;51.138;17.370;2023-09-12T14:19:04;9.20;;;6.70;;
34695;SDS011;20918;51.138;17.370;2023-09-12T14:22:05;10.30;;;6.60;;
34695;SDS011;20918;51.138;17.370;2023-09-12T14:25:06;10.70;;;6.70;;
34695;SDS011;20918;51.138;17.370;2023-09-12T14:28:08;9.30;;;7.30;;
34695;SDS011;20918;51.138;17.370;2023-09-12T14:31:08;9.10;;;7.20;;
34695;SDS011;20918;51.138;17.370;2023-09-12T14:34:14;10.00;;;7.40;;
34695;SDS011;20918;51.138;17.370;2023-09-12T14:37:14;9.30;;;7.00;;
34695;SDS011;20918;51.138;17.370;2023-09-12T14:40:15;8.80;;;6.60;;
34695;SDS011;20918;51.138;17.370;2023-09-12T14:43:17;9.20;;;7.10;;
34695;SDS011;20918;51.138;17.370;2023-09-12T14:46:20;9.70;;;7.00;;
34695;SDS011;20918;51.138;17.370;2023-09-12T14:49:21;7.60;;;6.80;;
34695;SDS011;20918;51.138;17.370;2023-09-12T14:52:22;9.40;;;7.00;;
34695;SDS011;20918;51.138;17.370;2023-09-12T14:55:23;8.00;;;6.80;;
34695;SDS011;20918;51.138;17.370;2023-09-12T14:58:23;10.50;;;7.20;;
34695;SDS011;20918;51.138;17.370;2023-09-12T15:01:24;8.50;;;7.40;;
34695;SDS011;20918;51.138;17.370;2023-09-12T15:04:25;7.40;;;6.70;;
34695;SDS011;20918;51.138;17.370;2023-09-12T15:07:28;11.30;;;7.60;;
34695;SDS011;20918;51.138;17.370;2023-09-12T15:10:33;7.60;;;6.90;;
34695;SDS011;20918;51.138;17.370;2023-09-12T15:13:36;8.30;;;7.40;;
34695;SDS011;20918;51.138;17.370;2023-09-12T15:16:37;9.20;;;6.90;;
34695;SDS011;20918;51.138;17.370;2023-09-12T15:19:40;9.30;;;7.40;;
34695;SDS011;20918;51.138;17.370;2023-09-12T15:22:43;8.30;;;7.40;;
34695;SDS011;20918;51.138;17.370;2023-09-12T15:25:44;10.00;;;7.50;;
34695;SDS011;20918;51.138;17.370;2023-09-12T15:28:45;11.80;;;7.60;;
34695;SDS011;20918;51.138;17.370;2023-09-12T15:31:46;13.10;;;7.40;;
34695;SDS011;20918;51.138;17.370;2023-09-12T15:34:46;12.40;;;7.00;;
34695;SDS011;20918;51.138;17.370;2023-09-12T15:37:47;11.10;;;7.40;;
34695;SDS011;20918;51.138;17.370;2023-09-12T15:40:51;8.30;;;7.30;;
34695;SDS011;20918;51.138;17.370;2023-09-12T15:43:52;10.20;;;7.10;;
34695;SDS011;20918;51.138;17.370;2023-09-12T15:46:52;8.50;;;7.60;;
34695;SDS011;20918;51.138;17.370;2023-09-12T15:49:57;8.10;;;7.30;;
34695;SDS011;20918;51.138;17.370;2023-09-12T15:52:58;11.90;;;7.30;;
34695;SDS011;20918;51.138;17.370;2023-09-12T15:56:01;9.40;;;7.50;;
34695;SDS011;20918;51.138;17.370;2023-09-12T15:59:02;9.30;;;7.20;;
34695;SDS011;20918;51.138;17.370;2023-09-12T16:02:03;10.30;;;7.20;;
34695;SDS011;20918;51.138;17.370;2023-09-12T16:05:06;7.70;;;6.70;;
34695;SDS011;20918;51.138;17.370;2023-09-12T16:08:10;10.40;;;7.20;;
34695;SDS011;20918;51.138;17.370;2023-09-12T16:11:12;8.90;;;7.60;;
34695;SDS011;20918;51.138;17.370;2023-09-12T16:14:14;10.60;;;7.70;;
34695;SDS011;20918;51.138;17.370;2023-09-12T16:17:16;19.60;;;8.20;;
34695;SDS011;20918;51.138;17.370;2023-09-12T16:20:16;14.40;;;7.30;;
34695;SDS011;20918;51.138;17.370;2023-09-12T16:23:17;16.60;;;7.70;;
34695;SDS011;20918;51.138;17.370;2023-09-12T16:26:17;11.10;;;8.10;;
34695;SDS011;20918;51.138;17.370;2023-09-12T16:29:18;14.20;;;8.60;;
34695;SDS011;20918;51.138;17.370;2023-09-12T16:32:19;14.80;;;8.20;;
34695;SDS011;20918;51.138;17.370;2023-09-12T16:35:19;18.20;;;8.10;;
34695;SDS011;20918;51.138;17.370;2023-09-12T16:38:22;20.40;;;8.20;;
34695;SDS011;20918;51.138;17.370;2023-09-12T16:41:25;16.90;;;8.10;;
34695;SDS011;20918;51.138;17.370;2023-09-12T16:44:26;8.50;;;7.60;;
34695;SDS011;20918;51.138;17.370;2023-09-12T16:47:27;9.50;;;7.80;;
34695;SDS011;20918;51.138;17.370;2023-09-12T16:50:28;12.80;;;8.20;;
34695;SDS011;20918;51.138;17.370;2023-09-12T16:53:35;8.30;;;7.50;;
34695;SDS011;20918;51.138;17.370;2023-09-12T16:56:39;8.90;;;8.00;;
34695;SDS011;20918;51.138;17.370;2023-09-12T16:59:40;15.30;;;8.30;;
34695;SDS011;20918;51.138;17.370;2023-09-12T17:02:46;11.30;;;8.30;;
34695;SDS011;20918;51.138;17.370;2023-09-12T17:05:47;12.00;;;8.50;;
34695;SDS011;20918;51.138;17.370;2023-09-12T17:08:48;18.20;;;9.40;;
34695;SDS011;20918;51.138;17.370;2023-09-12T17:11:48;22.10;;;8.90;;
34695;SDS011;20918;51.138;17.370;2023-09-12T17:14:49;40.90;;;10.10;;
34695;SDS011;20918;51.138;17.370;2023-09-12T17:17:50;130.10;;;14.50;;
34695;SDS011;20918;51.138;17.370;2023-09-12T17:20:50;68.10;;;11.40;;
34695;SDS011;20918;51.138;17.370;2023-09-12T17:23:51;37.50;;;10.40;;
34695;SDS011;20918;51.138;17.370;2023-09-12T17:26:51;37.30;;;9.80;;
34695;SDS011;20918;51.138;17.370;2023-09-12T17:29:54;27.70;;;9.60;;
34695;SDS011;20918;51.138;17.370;2023-09-12T17:32:55;44.80;;;10.90;;
34695;SDS011;20918;51.138;17.370;2023-09-12T17:35:55;32.30;;;10.40;;
34695;SDS011;20918;51.138;17.370;2023-09-12T17:38:58;31.30;;;10.10;;
34695;SDS011;20918;51.138;17.370;2023-09-12T17:41:59;31.80;;;9.80;;
34695;SDS011;20918;51.138;17.370;2023-09-12T17:45:00;15.10;;;8.80;;
34695;SDS011;20918;51.138;17.370;2023-09-12T17:48:01;18.60;;;9.40;;
34695;SDS011;20918;51.138;17.370;2023-09-12T17:51:02;31.50;;;10.70;;
34695;SDS011;20918;51.138;17.370;2023-09-12T17:54:02;31.80;;;9.70;;
34695;SDS011;20918;51.138;17.370;2023-09-12T17:57:03;22.20;;;9.00;;
34695;SDS011;20918;51.138;17.370;2023-09-12T18:00:06;39.00;;;9.80;;
34695;SDS011;20918;51.138;17.370;2023-09-12T18:03:12;45.60;;;11.40;;
34695;SDS011;20918;51.138;17.370;2023-09-12T18:06:12;29.40;;;11.20;;
34695;SDS011;20918;51.138;17.370;2023-09-12T18:09:13;19.90;;;10.60;;
34695;SDS011;20918;51.138;17.370;2023-09-12T18:12:14;23.50;;;10.50;;
34695;SDS011;20918;51.138;17.370;2023-09-12T18:15:15;35.30;;;11.30;;
34695;SDS011;20918;51.138;17.370;2023-09-12T18:18:16;27.60;;;11.10;;
34695;SDS011;20918;51.138;17.370;2023-09-12T18:21:17;24.90;;;9.40;;
34695;SDS011;20918;51.138;17.370;2023-09-12T18:24:17;26.20;;;11.40;;
34695;SDS011;20918;51.138;17.370;2023-09-12T18:27:18;23.40;;;10.60;;
34695;SDS011;20918;51.138;17.370;2023-09-12T18:30:21;23.10;;;11.90;;
34695;SDS011;20918;51.138;17.370;2023-09-12T18:33:22;22.70;;;13.30;;
34695;SDS011;20918;51.138;17.370;2023-09-12T18:36:23;16.70;;;13.60;;
34695;SDS011;20918;51.138;17.370;2023-09-12T18:39:26;23.20;;;14.80;;
34695;SDS011;20918;51.138;17.370;2023-09-12T18:42:27;21.20;;;16.20;;
34695;SDS011;20918;51.138;17.370;2023-09-12T18:45:29;17.20;;;13.20;;
34695;SDS011;20918;51.138;17.370;2023-09-12T18:48:29;19.30;;;12.60;;
34695;SDS011;20918;51.138;17.370;2023-09-12T18:51:32;32.10;;;13.40;;
34695;SDS011;20918;51.138;17.370;2023-09-12T18:54:33;14.30;;;11.90;;